Terminal Aerodrome Forecast
Issued by NWS Sioux Falls, SD

Home | Current Version | Previous Version | Text Only | Print | Product List | Glossary Off
Versions: 1 2 3 4 5 6 7 8 9 10 11 12 13 14 15 16 17 18 19 20

000
FTUS43 KFSD 110500
TAFFSD
TAF
KFSD 110520Z 1106/1206 18015G22KT P6SM SCT050 BKN100
     FM110800 17011KT P6SM BKN050 BKN100
      TEMPO 1108/1111 4SM TSRA BKN030CB
     FM111200 18009KT P6SM BKN015
     FM111700 18006KT P6SM SCT015 BKN250
     FM120100 VRB04KT P6SM BKN150=

USA.gov is the U.S. government's official web portal to all federal, state and local government web resources and services.